sensor_id;sensor_type;location;lat;lon;timestamp;temperature;humidity
2463;DHT22;1243;54.298;10.172;2022-07-29T00:01:48;11.60;1.00
2463;DHT22;1243;54.298;10.172;2022-07-29T00:04:14;11.60;1.00
2463;DHT22;1243;54.298;10.172;2022-07-29T00:06:40;11.60;1.00
2463;DHT22;1243;54.298;10.172;2022-07-29T00:09:06;11.60;1.00
2463;DHT22;1243;54.298;10.172;2022-07-29T00:11:32;11.60;1.00
2463;DHT22;1243;54.298;10.172;2022-07-29T00:13:58;11.60;1.00
2463;DHT22;1243;54.298;10.172;2022-07-29T00:16:23;11.50;1.00
2463;DHT22;1243;54.298;10.172;2022-07-29T00:18:49;11.40;1.00
2463;DHT22;1243;54.298;10.172;2022-07-29T00:21:15;11.30;1.00
2463;DHT22;1243;54.298;10.172;2022-07-29T00:23:41;11.30;1.00
2463;DHT22;1243;54.298;10.172;2022-07-29T00:26:07;11.30;1.00
2463;DHT22;1243;54.298;10.172;2022-07-29T00:28:33;11.30;1.00
2463;DHT22;1243;54.298;10.172;2022-07-29T00:30:59;11.30;1.00
2463;DHT22;1243;54.298;10.172;2022-07-29T00:33:24;11.30;1.00
2463;DHT22;1243;54.298;10.172;2022-07-29T00:35:50;11.30;1.00
2463;DHT22;1243;54.298;10.172;2022-07-29T00:38:17;11.20;1.00
2463;DHT22;1243;54.298;10.172;2022-07-29T00:40:44;11.10;1.00
2463;DHT22;1243;54.298;10.172;2022-07-29T00:43:11;11.00;1.00
2463;DHT22;1243;54.298;10.172;2022-07-29T00:45:38;11.00;1.00
2463;DHT22;1243;54.298;10.172;2022-07-29T00:48:04;11.10;1.00
2463;DHT22;1243;54.298;10.172;2022-07-29T00:50:31;11.10;1.00
2463;DHT22;1243;54.298;10.172;2022-07-29T00:52:57;11.10;1.00
2463;DHT22;1243;54.298;10.172;2022-07-29T00:55:23;11.10;1.00
2463;DHT22;1243;54.298;10.172;2022-07-29T00:57:49;11.00;1.00
2463;DHT22;1243;54.298;10.172;2022-07-29T01:00:19;11.00;1.00
2463;DHT22;1243;54.298;10.172;2022-07-29T01:02:46;11.00;1.00
2463;DHT22;1243;54.298;10.172;2022-07-29T01:05:18;11.00;1.00
2463;DHT22;1243;54.298;10.172;2022-07-29T01:07:45;11.00;1.00
2463;DHT22;1243;54.298;10.172;2022-07-29T01:10:13;11.00;1.00
2463;DHT22;1243;54.298;10.172;2022-07-29T01:12:40;11.00;1.00
2463;DHT22;1243;54.298;10.172;2022-07-29T01:15:07;11.00;1.00
2463;DHT22;1243;54.298;10.172;2022-07-29T01:25:48;10.90;1.00
2463;DHT22;1243;54.298;10.172;2022-07-29T01:30:56;10.90;1.00
2463;DHT22;1243;54.298;10.172;2022-07-29T01:33:24;10.90;1.00
2463;DHT22;1243;54.298;10.172;2022-07-29T01:36:13;10.90;1.00
2463;DHT22;1243;54.298;10.172;2022-07-29T01:38:41;10.90;1.00
2463;DHT22;1243;54.298;10.172;2022-07-29T01:41:15;10.90;1.00
2463;DHT22;1243;54.298;10.172;2022-07-29T01:43:49;10.80;1.00
2463;DHT22;1243;54.298;10.172;2022-07-29T01:46:25;10.80;1.00
2463;DHT22;1243;54.298;10.172;2022-07-29T01:49:08;10.80;1.00
2463;DHT22;1243;54.298;10.172;2022-07-29T01:51:43;10.80;1.00
2463;DHT22;1243;54.298;10.172;2022-07-29T01:56:56;10.70;1.00
2463;DHT22;1243;54.298;10.172;2022-07-29T01:59:23;10.70;1.00
2463;DHT22;1243;54.298;10.172;2022-07-29T02:01:52;10.60;1.00
2463;DHT22;1243;54.298;10.172;2022-07-29T02:04:19;10.70;1.00
2463;DHT22;1243;54.298;10.172;2022-07-29T02:06:47;10.60;1.00
2463;DHT22;1243;54.298;10.172;2022-07-29T02:09:15;10.70;1.00
2463;DHT22;1243;54.298;10.172;2022-07-29T02:11:47;10.70;1.00
2463;DHT22;1243;54.298;10.172;2022-07-29T02:14:14;10.70;1.00
2463;DHT22;1243;54.298;10.172;2022-07-29T02:16:42;10.70;1.00
2463;DHT22;1243;54.298;10.172;2022-07-29T02:19:09;10.70;1.00
2463;DHT22;1243;54.298;10.172;2022-07-29T02:21:36;10.60;1.00
2463;DHT22;1243;54.298;10.172;2022-07-29T02:24:02;10.60;1.00
2463;DHT22;1243;54.298;10.172;2022-07-29T02:26:30;10.60;1.00
2463;DHT22;1243;54.298;10.172;2022-07-29T02:28:59;10.50;1.00
2463;DHT22;1243;54.298;10.172;2022-07-29T02:31:29;10.50;1.00
2463;DHT22;1243;54.298;10.172;2022-07-29T02:33:58;10.50;1.00
2463;DHT22;1243;54.298;10.172;2022-07-29T02:36:26;10.50;1.00
2463;DHT22;1243;54.298;10.172;2022-07-29T02:38:52;10.50;1.00
2463;DHT22;1243;54.298;10.172;2022-07-29T02:41:30;10.50;1.00
2463;DHT22;1243;54.298;10.172;2022-07-29T02:44:05;10.40;1.00
2463;DHT22;1243;54.298;10.172;2022-07-29T02:46:34;10.40;1.00
2463;DHT22;1243;54.298;10.172;2022-07-29T02:49:14;10.40;1.00
2463;DHT22;1243;54.298;10.172;2022-07-29T02:51:43;10.40;1.00
2463;DHT22;1243;54.298;10.172;2022-07-29T02:54:11;10.30;1.00
2463;DHT22;1243;54.298;10.172;2022-07-29T02:56:42;10.30;1.00
2463;DHT22;1243;54.298;10.172;2022-07-29T02:59:11;10.30;1.00
2463;DHT22;1243;54.298;10.172;2022-07-29T03:01:41;10.30;1.00
2463;DHT22;1243;54.298;10.172;2022-07-29T03:04:09;10.30;1.00
2463;DHT22;1243;54.298;10.172;2022-07-29T03:06:37;10.30;1.00
2463;DHT22;1243;54.298;10.172;2022-07-29T03:09:03;10.30;1.00
2463;DHT22;1243;54.298;10.172;2022-07-29T03:11:30;10.40;1.00
2463;DHT22;1243;54.298;10.172;2022-07-29T03:13:56;10.30;1.00
2463;DHT22;1243;54.298;10.172;2022-07-29T03:16:22;10.20;1.00
2463;DHT22;1243;54.298;10.172;2022-07-29T03:18:49;10.20;1.00
2463;DHT22;1243;54.298;10.172;2022-07-29T03:21:15;10.20;1.00
2463;DHT22;1243;54.298;10.172;2022-07-29T03:23:44;10.20;1.00
2463;DHT22;1243;54.298;10.172;2022-07-29T03:26:13;10.30;1.00
2463;DHT22;1243;54.298;10.172;2022-07-29T03:28:39;10.30;1.00
2463;DHT22;1243;54.298;10.172;2022-07-29T03:31:04;10.40;1.00
2463;DHT22;1243;54.298;10.172;2022-07-29T03:33:30;10.40;1.00
2463;DHT22;1243;54.298;10.172;2022-07-29T03:35:57;10.40;4.90
2463;DHT22;1243;54.298;10.172;2022-07-29T03:38:25;10.30;12.30
2463;DHT22;1243;54.298;10.172;2022-07-29T03:41:03;10.30;5.40
2463;DHT22;1243;54.298;10.172;2022-07-29T03:43:32;10.30;28.00
2463;DHT22;1243;54.298;10.172;2022-07-29T03:46:00;10.30;1.00
2463;DHT22;1243;54.298;10.172;2022-07-29T03:48:28;10.30;1.00
2463;DHT22;1243;54.298;10.172;2022-07-29T03:50:56;10.40;1.00
2463;DHT22;1243;54.298;10.172;2022-07-29T03:53:22;10.40;1.00
2463;DHT22;1243;54.298;10.172;2022-07-29T03:55:52;10.50;1.00
2463;DHT22;1243;54.298;10.172;2022-07-29T03:58:19;10.60;1.00
2463;DHT22;1243;54.298;10.172;2022-07-29T04:00:45;10.60;1.00
2463;DHT22;1243;54.298;10.172;2022-07-29T04:03:12;10.60;1.00
2463;DHT22;1243;54.298;10.172;2022-07-29T04:05:38;10.70;1.00
2463;DHT22;1243;54.298;10.172;2022-07-29T04:08:04;10.70;1.00
2463;DHT22;1243;54.298;10.172;2022-07-29T04:10:30;10.80;1.00
2463;DHT22;1243;54.298;10.172;2022-07-29T04:12:56;10.80;1.00
2463;DHT22;1243;54.298;10.172;2022-07-29T04:15:22;10.80;1.00
2463;DHT22;1243;54.298;10.172;2022-07-29T04:17:47;10.80;1.00
2463;DHT22;1243;54.298;10.172;2022-07-29T04:20:13;10.80;1.00
2463;DHT22;1243;54.298;10.172;2022-07-29T04:22:39;10.90;1.00
2463;DHT22;1243;54.298;10.172;2022-07-29T04:25:06;11.00;1.00
2463;DHT22;1243;54.298;10.172;2022-07-29T04:27:32;11.00;18.40
2463;DHT22;1243;54.298;10.172;2022-07-29T04:29:57;11.10;45.80
2463;DHT22;1243;54.298;10.172;2022-07-29T04:32:24;11.10;1.00
2463;DHT22;1243;54.298;10.172;2022-07-29T04:34:50;11.20;1.00
2463;DHT22;1243;54.298;10.172;2022-07-29T04:37:19;11.20;1.00
2463;DHT22;1243;54.298;10.172;2022-07-29T04:39:48;11.30;1.00
2463;DHT22;1243;54.298;10.172;2022-07-29T04:42:16;11.40;1.00
2463;DHT22;1243;54.298;10.172;2022-07-29T04:44:45;11.40;1.00
2463;DHT22;1243;54.298;10.172;2022-07-29T04:47:10;11.40;1.00
2463;DHT22;1243;54.298;10.172;2022-07-29T04:49:39;11.40;1.00
2463;DHT22;1243;54.298;10.172;2022-07-29T04:52:05;11.60;1.00
2463;DHT22;1243;54.298;10.172;2022-07-29T04:54:31;11.60;1.00
2463;DHT22;1243;54.298;10.172;2022-07-29T04:56:57;11.60;1.00
2463;DHT22;1243;54.298;10.172;2022-07-29T04:59:23;11.60;76.90
2463;DHT22;1243;54.298;10.172;2022-07-29T05:01:50;11.70;72.50
2463;DHT22;1243;54.298;10.172;2022-07-29T05:04:16;11.60;18.30
2463;DHT22;1243;54.298;10.172;2022-07-29T05:06:41;11.70;45.60
2463;DHT22;1243;54.298;10.172;2022-07-29T05:09:07;11.80;67.30
2463;DHT22;1243;54.298;10.172;2022-07-29T05:11:32;11.90;62.00
2463;DHT22;1243;54.298;10.172;2022-07-29T05:13:58;12.00;23.00
2463;DHT22;1243;54.298;10.172;2022-07-29T05:16:24;12.00;12.70
2463;DHT22;1243;54.298;10.172;2022-07-29T05:18:49;12.10;65.10
2463;DHT22;1243;54.298;10.172;2022-07-29T05:21:15;12.20;29.50
2463;DHT22;1243;54.298;10.172;2022-07-29T05:23:41;12.20;12.70
2463;DHT22;1243;54.298;10.172;2022-07-29T05:26:06;12.30;33.10
2463;DHT22;1243;54.298;10.172;2022-07-29T05:28:35;12.40;22.70
2463;DHT22;1243;54.298;10.172;2022-07-29T05:31:01;12.40;94.00
2463;DHT22;1243;54.298;10.172;2022-07-29T05:33:27;12.50;93.80
2463;DHT22;1243;54.298;10.172;2022-07-29T05:35:52;12.60;99.90
2463;DHT22;1243;54.298;10.172;2022-07-29T05:38:28;12.70;99.90
2463;DHT22;1243;54.298;10.172;2022-07-29T05:40:56;12.80;99.90
2463;DHT22;1243;54.298;10.172;2022-07-29T05:43:23;12.90;99.90
2463;DHT22;1243;54.298;10.172;2022-07-29T05:45:49;13.10;99.90
2463;DHT22;1243;54.298;10.172;2022-07-29T05:48:17;13.20;99.90
2463;DHT22;1243;54.298;10.172;2022-07-29T05:50:43;13.30;99.90
2463;DHT22;1243;54.298;10.172;2022-07-29T05:53:09;13.40;99.90
2463;DHT22;1243;54.298;10.172;2022-07-29T05:55:35;13.50;99.90
2463;DHT22;1243;54.298;10.172;2022-07-29T05:58:01;13.60;99.90
2463;DHT22;1243;54.298;10.172;2022-07-29T06:00:26;13.80;99.90
2463;DHT22;1243;54.298;10.172;2022-07-29T06:02:52;14.00;99.90
2463;DHT22;1243;54.298;10.172;2022-07-29T06:05:18;14.10;99.90
2463;DHT22;1243;54.298;10.172;2022-07-29T06:07:44;14.20;99.90
2463;DHT22;1243;54.298;10.172;2022-07-29T06:10:10;14.30;99.90
2463;DHT22;1243;54.298;10.172;2022-07-29T06:12:36;14.50;99.90
2463;DHT22;1243;54.298;10.172;2022-07-29T06:15:02;14.60;99.90
2463;DHT22;1243;54.298;10.172;2022-07-29T06:17:28;14.70;99.90
2463;DHT22;1243;54.298;10.172;2022-07-29T06:19:54;14.80;99.90
2463;DHT22;1243;54.298;10.172;2022-07-29T06:22:19;14.80;99.90
2463;DHT22;1243;54.298;10.172;2022-07-29T06:24:45;14.90;99.90
2463;DHT22;1243;54.298;10.172;2022-07-29T06:27:11;15.00;99.90
2463;DHT22;1243;54.298;10.172;2022-07-29T06:29:37;15.10;99.90
2463;DHT22;1243;54.298;10.172;2022-07-29T06:32:03;15.10;99.90
2463;DHT22;1243;54.298;10.172;2022-07-29T06:34:29;15.10;99.90
2463;DHT22;1243;54.298;10.172;2022-07-29T06:36:55;15.10;99.90
2463;DHT22;1243;54.298;10.172;2022-07-29T06:39:21;15.10;99.90
2463;DHT22;1243;54.298;10.172;2022-07-29T06:41:48;15.20;99.90
2463;DHT22;1243;54.298;10.172;2022-07-29T06:44:15;15.30;99.90
2463;DHT22;1243;54.298;10.172;2022-07-29T06:46:41;15.30;99.90
2463;DHT22;1243;54.298;10.172;2022-07-29T06:49:07;15.40;99.90
2463;DHT22;1243;54.298;10.172;2022-07-29T06:51:33;15.60;99.90
2463;DHT22;1243;54.298;10.172;2022-07-29T06:53:59;15.70;99.90
2463;DHT22;1243;54.298;10.172;2022-07-29T06:56:26;15.80;99.90
2463;DHT22;1243;54.298;10.172;2022-07-29T06:58:52;16.00;99.90
2463;DHT22;1243;54.298;10.172;2022-07-29T07:01:18;16.10;93.10
2463;DHT22;1243;54.298;10.172;2022-07-29T07:03:45;16.20;99.90
2463;DHT22;1243;54.298;10.172;2022-07-29T07:06:11;16.30;99.90
2463;DHT22;1243;54.298;10.172;2022-07-29T07:08:37;16.40;99.90
2463;DHT22;1243;54.298;10.172;2022-07-29T07:11:03;16.60;94.50
2463;DHT22;1243;54.298;10.172;2022-07-29T07:13:29;16.70;94.30
2463;DHT22;1243;54.298;10.172;2022-07-29T07:16:00;16.70;85.00
2463;DHT22;1243;54.298;10.172;2022-07-29T07:18:26;16.80;59.60
2463;DHT22;1243;54.298;10.172;2022-07-29T07:20:53;16.90;76.90
2463;DHT22;1243;54.298;10.172;2022-07-29T07:23:19;17.00;46.60
2463;DHT22;1243;54.298;10.172;2022-07-29T07:25:45;17.20;41.60
2463;DHT22;1243;54.298;10.172;2022-07-29T07:28:13;17.40;28.30
2463;DHT22;1243;54.298;10.172;2022-07-29T07:30:39;17.50;16.40
2463;DHT22;1243;54.298;10.172;2022-07-29T07:33:14;17.60;7.20
2463;DHT22;1243;54.298;10.172;2022-07-29T07:35:41;17.80;1.00
2463;DHT22;1243;54.298;10.172;2022-07-29T07:38:07;17.90;1.00
2463;DHT22;1243;54.298;10.172;2022-07-29T07:40:33;18.00;1.00
2463;DHT22;1243;54.298;10.172;2022-07-29T07:42:59;18.10;1.00
2463;DHT22;1243;54.298;10.172;2022-07-29T07:45:25;18.20;1.00
2463;DHT22;1243;54.298;10.172;2022-07-29T07:47:51;18.20;1.00
2463;DHT22;1243;54.298;10.172;2022-07-29T07:50:16;18.40;1.00
2463;DHT22;1243;54.298;10.172;2022-07-29T07:52:53;18.50;1.00
2463;DHT22;1243;54.298;10.172;2022-07-29T07:55:20;18.70;1.00
2463;DHT22;1243;54.298;10.172;2022-07-29T07:57:46;18.80;1.00
2463;DHT22;1243;54.298;10.172;2022-07-29T08:00:14;19.00;1.00
2463;DHT22;1243;54.298;10.172;2022-07-29T08:02:40;19.10;1.00
2463;DHT22;1243;54.298;10.172;2022-07-29T08:05:08;19.20;1.00
2463;DHT22;1243;54.298;10.172;2022-07-29T08:07:34;19.30;1.00
2463;DHT22;1243;54.298;10.172;2022-07-29T08:10:03;19.50;1.00
2463;DHT22;1243;54.298;10.172;2022-07-29T08:12:29;19.60;1.00
2463;DHT22;1243;54.298;10.172;2022-07-29T08:14:55;19.70;1.00
2463;DHT22;1243;54.298;10.172;2022-07-29T08:17:21;19.80;1.00
2463;DHT22;1243;54.298;10.172;2022-07-29T08:19:47;19.90;1.00
2463;DHT22;1243;54.298;10.172;2022-07-29T08:22:14;20.00;1.00
2463;DHT22;1243;54.298;10.172;2022-07-29T08:24:40;20.00;1.00
2463;DHT22;1243;54.298;10.172;2022-07-29T08:27:12;20.10;1.00
2463;DHT22;1243;54.298;10.172;2022-07-29T08:29:38;20.20;1.00
2463;DHT22;1243;54.298;10.172;2022-07-29T08:32:04;20.30;1.00
2463;DHT22;1243;54.298;10.172;2022-07-29T08:34:31;20.40;1.00
2463;DHT22;1243;54.298;10.172;2022-07-29T08:36:57;20.30;1.00
2463;DHT22;1243;54.298;10.172;2022-07-29T08:39:24;20.20;1.00
2463;DHT22;1243;54.298;10.172;2022-07-29T08:41:50;20.20;1.00
2463;DHT22;1243;54.298;10.172;2022-07-29T08:44:20;20.20;1.00
2463;DHT22;1243;54.298;10.172;2022-07-29T08:46:48;20.30;1.00
2463;DHT22;1243;54.298;10.172;2022-07-29T08:49:15;20.40;1.00
2463;DHT22;1243;54.298;10.172;2022-07-29T08:52:01;20.50;1.00
2463;DHT22;1243;54.298;10.172;2022-07-29T08:54:27;20.60;1.00
2463;DHT22;1243;54.298;10.172;2022-07-29T08:56:54;20.70;1.00
2463;DHT22;1243;54.298;10.172;2022-07-29T08:59:23;20.80;1.00
2463;DHT22;1243;54.298;10.172;2022-07-29T09:01:52;20.80;1.00
2463;DHT22;1243;54.298;10.172;2022-07-29T09:04:19;20.80;1.00
2463;DHT22;1243;54.298;10.172;2022-07-29T09:06:51;20.70;1.00
2463;DHT22;1243;54.298;10.172;2022-07-29T09:09:18;20.70;1.00
2463;DHT22;1243;54.298;10.172;2022-07-29T09:11:44;20.90;1.00
2463;DHT22;1243;54.298;10.172;2022-07-29T09:14:13;21.10;1.00
2463;DHT22;1243;54.298;10.172;2022-07-29T09:16:50;21.30;1.00
2463;DHT22;1243;54.298;10.172;2022-07-29T09:19:24;21.70;1.00
2463;DHT22;1243;54.298;10.172;2022-07-29T09:21:51;21.70;1.00
2463;DHT22;1243;54.298;10.172;2022-07-29T09:27:22;21.20;1.00
2463;DHT22;1243;54.298;10.172;2022-07-29T09:30:08;21.10;1.00
2463;DHT22;1243;54.298;10.172;2022-07-29T09:32:58;20.90;1.00
2463;DHT22;1243;54.298;10.172;2022-07-29T09:35:27;20.80;1.00
2463;DHT22;1243;54.298;10.172;2022-07-29T09:37:53;20.70;1.00
2463;DHT22;1243;54.298;10.172;2022-07-29T09:40:25;20.70;1.00
2463;DHT22;1243;54.298;10.172;2022-07-29T09:42:51;20.80;1.00
2463;DHT22;1243;54.298;10.172;2022-07-29T09:45:33;21.00;1.00
2463;DHT22;1243;54.298;10.172;2022-07-29T09:48:00;21.40;1.00
2463;DHT22;1243;54.298;10.172;2022-07-29T09:50:42;21.70;1.00
2463;DHT22;1243;54.298;10.172;2022-07-29T09:53:09;21.70;1.00
2463;DHT22;1243;54.298;10.172;2022-07-29T09:55:51;21.70;1.00
2463;DHT22;1243;54.298;10.172;2022-07-29T09:58:22;21.50;1.00
2463;DHT22;1243;54.298;10.172;2022-07-29T10:00:50;21.30;1.00
2463;DHT22;1243;54.298;10.172;2022-07-29T10:03:17;21.30;1.00
2463;DHT22;1243;54.298;10.172;2022-07-29T10:05:44;21.60;1.00
2463;DHT22;1243;54.298;10.172;2022-07-29T10:08:10;21.90;1.00
2463;DHT22;1243;54.298;10.172;2022-07-29T10:10:40;22.10;1.00
2463;DHT22;1243;54.298;10.172;2022-07-29T10:13:13;22.20;1.00
2463;DHT22;1243;54.298;10.172;2022-07-29T10:15:43;22.20;1.00
2463;DHT22;1243;54.298;10.172;2022-07-29T10:18:14;22.30;1.00
2463;DHT22;1243;54.298;10.172;2022-07-29T10:20:42;22.40;1.00
2463;DHT22;1243;54.298;10.172;2022-07-29T10:23:09;22.40;1.00
2463;DHT22;1243;54.298;10.172;2022-07-29T10:25:35;22.30;1.00
2463;DHT22;1243;54.298;10.172;2022-07-29T10:28:00;22.40;1.00
2463;DHT22;1243;54.298;10.172;2022-07-29T10:30:26;22.40;1.00
2463;DHT22;1243;54.298;10.172;2022-07-29T10:35:57;22.40;1.00
2463;DHT22;1243;54.298;10.172;2022-07-29T10:38:44;22.50;1.00
2463;DHT22;1243;54.298;10.172;2022-07-29T10:44:04;22.80;1.00
2463;DHT22;1243;54.298;10.172;2022-07-29T10:46:40;22.90;1.00
2463;DHT22;1243;54.298;10.172;2022-07-29T10:49:08;23.20;1.00
2463;DHT22;1243;54.298;10.172;2022-07-29T10:51:51;23.10;1.00
2463;DHT22;1243;54.298;10.172;2022-07-29T10:54:20;23.00;1.00
2463;DHT22;1243;54.298;10.172;2022-07-29T11:05:12;24.60;1.00
2463;DHT22;1243;54.298;10.172;2022-07-29T11:10:25;25.20;1.00
2463;DHT22;1243;54.298;10.172;2022-07-29T11:12:51;25.10;1.00
2463;DHT22;1243;54.298;10.172;2022-07-29T11:15:20;24.60;1.00
2463;DHT22;1243;54.298;10.172;2022-07-29T11:22:56;23.80;1.00
2463;DHT22;1243;54.298;10.172;2022-07-29T11:25:23;23.50;1.00
2463;DHT22;1243;54.298;10.172;2022-07-29T11:27:49;23.50;1.00
2463;DHT22;1243;54.298;10.172;2022-07-29T11:30:15;23.70;1.00
2463;DHT22;1243;54.298;10.172;2022-07-29T11:32:42;23.40;1.00
2463;DHT22;1243;54.298;10.172;2022-07-29T11:35:22;23.40;1.00
2463;DHT22;1243;54.298;10.172;2022-07-29T11:38:26;23.60;1.00
2463;DHT22;1243;54.298;10.172;2022-07-29T11:46:14;23.10;1.00
2463;DHT22;1243;54.298;10.172;2022-07-29T11:48:43;22.80;1.00
2463;DHT22;1243;54.298;10.172;2022-07-29T11:51:10;22.60;1.00
2463;DHT22;1243;54.298;10.172;2022-07-29T11:53:38;22.70;1.00
2463;DHT22;1243;54.298;10.172;2022-07-29T11:56:10;22.90;1.00
2463;DHT22;1243;54.298;10.172;2022-07-29T11:58:38;23.70;1.00
2463;DHT22;1243;54.298;10.172;2022-07-29T12:01:04;24.80;1.00
2463;DHT22;1243;54.298;10.172;2022-07-29T12:03:30;25.80;1.00
2463;DHT22;1243;54.298;10.172;2022-07-29T12:05:56;26.80;1.00
2463;DHT22;1243;54.298;10.172;2022-07-29T12:08:22;27.60;1.00
2463;DHT22;1243;54.298;10.172;2022-07-29T12:10:50;27.80;1.00
2463;DHT22;1243;54.298;10.172;2022-07-29T12:13:17;27.40;99.90
2463;DHT22;1243;54.298;10.172;2022-07-29T12:15:53;27.00;99.90
2463;DHT22;1243;54.298;10.172;2022-07-29T12:18:19;26.90;99.90
2463;DHT22;1243;54.298;10.172;2022-07-29T12:20:46;26.50;99.90
2463;DHT22;1243;54.298;10.172;2022-07-29T12:23:14;26.10;99.90
2463;DHT22;1243;54.298;10.172;2022-07-29T12:25:42;25.10;99.90
2463;DHT22;1243;54.298;10.172;2022-07-29T12:28:10;24.50;99.90
2463;DHT22;1243;54.298;10.172;2022-07-29T12:30:40;24.00;99.90
2463;DHT22;1243;54.298;10.172;2022-07-29T12:35:44;23.20;1.00
2463;DHT22;1243;54.298;10.172;2022-07-29T12:38:13;23.00;1.00
2463;DHT22;1243;54.298;10.172;2022-07-29T12:40:40;23.20;1.00
2463;DHT22;1243;54.298;10.172;2022-07-29T12:43:07;23.10;1.00
2463;DHT22;1243;54.298;10.172;2022-07-29T12:45:36;23.00;1.00
2463;DHT22;1243;54.298;10.172;2022-07-29T12:48:02;22.80;1.00
2463;DHT22;1243;54.298;10.172;2022-07-29T12:50:28;22.70;1.00
2463;DHT22;1243;54.298;10.172;2022-07-29T12:53:17;22.40;1.00
2463;DHT22;1243;54.298;10.172;2022-07-29T12:55:48;22.40;1.00
2463;DHT22;1243;54.298;10.172;2022-07-29T12:58:43;22.60;1.00
2463;DHT22;1243;54.298;10.172;2022-07-29T13:01:15;22.50;1.00
2463;DHT22;1243;54.298;10.172;2022-07-29T13:03:52;22.40;1.00
2463;DHT22;1243;54.298;10.172;2022-07-29T13:06:40;22.60;1.00
2463;DHT22;1243;54.298;10.172;2022-07-29T13:12:14;22.60;1.00
2463;DHT22;1243;54.298;10.172;2022-07-29T13:18:36;22.50;1.00
2463;DHT22;1243;54.298;10.172;2022-07-29T13:21:15;22.50;1.00
2463;DHT22;1243;54.298;10.172;2022-07-29T13:23:42;22.50;1.00
2463;DHT22;1243;54.298;10.172;2022-07-29T13:26:09;22.40;1.00
2463;DHT22;1243;54.298;10.172;2022-07-29T13:28:35;22.50;1.00
2463;DHT22;1243;54.298;10.172;2022-07-29T13:31:01;22.70;1.00
2463;DHT22;1243;54.298;10.172;2022-07-29T13:33:27;22.70;1.00
2463;DHT22;1243;54.298;10.172;2022-07-29T13:35:53;22.40;1.00
2463;DHT22;1243;54.298;10.172;2022-07-29T13:38:18;22.30;1.00
2463;DHT22;1243;54.298;10.172;2022-07-29T13:40:44;22.30;1.00
2463;DHT22;1243;54.298;10.172;2022-07-29T13:43:11;22.20;1.00
2463;DHT22;1243;54.298;10.172;2022-07-29T13:45:39;22.20;1.00
2463;DHT22;1243;54.298;10.172;2022-07-29T13:48:05;22.30;1.00
2463;DHT22;1243;54.298;10.172;2022-07-29T13:50:32;22.30;1.00
2463;DHT22;1243;54.298;10.172;2022-07-29T13:52:58;22.20;1.00
2463;DHT22;1243;54.298;10.172;2022-07-29T13:55:24;22.10;1.00
2463;DHT22;1243;54.298;10.172;2022-07-29T13:57:50;22.10;1.00
2463;DHT22;1243;54.298;10.172;2022-07-29T14:00:16;22.30;1.00
2463;DHT22;1243;54.298;10.172;2022-07-29T14:02:42;22.50;1.00
2463;DHT22;1243;54.298;10.172;2022-07-29T14:05:08;22.40;1.00
2463;DHT22;1243;54.298;10.172;2022-07-29T14:07:38;22.10;1.00
2463;DHT22;1243;54.298;10.172;2022-07-29T14:10:05;21.90;1.00
2463;DHT22;1243;54.298;10.172;2022-07-29T14:12:34;21.80;1.00
2463;DHT22;1243;54.298;10.172;2022-07-29T14:15:00;21.90;1.00
2463;DHT22;1243;54.298;10.172;2022-07-29T14:17:26;21.90;1.00
2463;DHT22;1243;54.298;10.172;2022-07-29T14:19:52;22.00;1.00
2463;DHT22;1243;54.298;10.172;2022-07-29T14:22:18;22.00;1.00
2463;DHT22;1243;54.298;10.172;2022-07-29T14:24:44;22.10;1.00
2463;DHT22;1243;54.298;10.172;2022-07-29T14:27:11;22.00;1.00
2463;DHT22;1243;54.298;10.172;2022-07-29T14:29:37;21.90;1.00
2463;DHT22;1243;54.298;10.172;2022-07-29T14:32:03;21.90;1.00
2463;DHT22;1243;54.298;10.172;2022-07-29T14:34:29;21.90;1.00
2463;DHT22;1243;54.298;10.172;2022-07-29T14:36:55;21.90;1.00
2463;DHT22;1243;54.298;10.172;2022-07-29T14:39:24;22.00;1.00
2463;DHT22;1243;54.298;10.172;2022-07-29T14:41:50;22.00;1.00
2463;DHT22;1243;54.298;10.172;2022-07-29T14:44:17;21.90;1.00
2463;DHT22;1243;54.298;10.172;2022-07-29T14:46:43;21.90;1.00
2463;DHT22;1243;54.298;10.172;2022-07-29T14:49:09;22.00;1.00
2463;DHT22;1243;54.298;10.172;2022-07-29T14:51:35;22.10;1.00
2463;DHT22;1243;54.298;10.172;2022-07-29T14:54:01;22.20;1.00
2463;DHT22;1243;54.298;10.172;2022-07-29T14:56:30;22.30;1.00
2463;DHT22;1243;54.298;10.172;2022-07-29T14:58:56;22.30;1.00
2463;DHT22;1243;54.298;10.172;2022-07-29T15:01:23;22.60;1.00
2463;DHT22;1243;54.298;10.172;2022-07-29T15:03:50;22.70;1.00
2463;DHT22;1243;54.298;10.172;2022-07-29T15:06:15;22.90;1.00
2463;DHT22;1243;54.298;10.172;2022-07-29T15:08:41;23.10;1.00
2463;DHT22;1243;54.298;10.172;2022-07-29T15:11:13;23.10;1.00
2463;DHT22;1243;54.298;10.172;2022-07-29T15:13:42;22.90;1.00
2463;DHT22;1243;54.298;10.172;2022-07-29T15:16:08;23.00;1.00
2463;DHT22;1243;54.298;10.172;2022-07-29T15:18:34;22.70;1.00
2463;DHT22;1243;54.298;10.172;2022-07-29T15:21:00;22.60;1.00
2463;DHT22;1243;54.298;10.172;2022-07-29T15:23:27;22.60;1.00
2463;DHT22;1243;54.298;10.172;2022-07-29T15:25:53;22.80;1.00
2463;DHT22;1243;54.298;10.172;2022-07-29T15:28:19;23.00;1.00
2463;DHT22;1243;54.298;10.172;2022-07-29T15:30:45;23.00;1.00
2463;DHT22;1243;54.298;10.172;2022-07-29T15:33:10;22.70;1.00
2463;DHT22;1243;54.298;10.172;2022-07-29T15:35:37;22.80;1.00
2463;DHT22;1243;54.298;10.172;2022-07-29T15:38:03;22.90;1.00
2463;DHT22;1243;54.298;10.172;2022-07-29T15:40:29;22.90;1.00
2463;DHT22;1243;54.298;10.172;2022-07-29T15:42:57;23.00;1.00
2463;DHT22;1243;54.298;10.172;2022-07-29T15:45:35;23.20;1.00
2463;DHT22;1243;54.298;10.172;2022-07-29T15:48:05;23.40;1.00
2463;DHT22;1243;54.298;10.172;2022-07-29T15:50:32;23.40;1.00
2463;DHT22;1243;54.298;10.172;2022-07-29T15:52:57;23.40;1.00
2463;DHT22;1243;54.298;10.172;2022-07-29T15:58:40;22.60;1.00
2463;DHT22;1243;54.298;10.172;2022-07-29T16:01:06;22.20;1.00
2463;DHT22;1243;54.298;10.172;2022-07-29T16:03:32;21.90;1.00
2463;DHT22;1243;54.298;10.172;2022-07-29T16:05:58;22.00;1.00
2463;DHT22;1243;54.298;10.172;2022-07-29T16:08:55;22.00;1.00
2463;DHT22;1243;54.298;10.172;2022-07-29T16:11:31;21.90;1.00
2463;DHT22;1243;54.298;10.172;2022-07-29T16:13:58;21.90;1.00
2463;DHT22;1243;54.298;10.172;2022-07-29T16:16:24;21.80;1.00
2463;DHT22;1243;54.298;10.172;2022-07-29T16:19:00;21.80;1.00
2463;DHT22;1243;54.298;10.172;2022-07-29T16:21:26;22.00;1.00
2463;DHT22;1243;54.298;10.172;2022-07-29T16:23:52;22.20;1.00
2463;DHT22;1243;54.298;10.172;2022-07-29T16:26:18;22.30;1.00
2463;DHT22;1243;54.298;10.172;2022-07-29T16:28:43;22.40;1.00
2463;DHT22;1243;54.298;10.172;2022-07-29T16:31:09;22.40;1.00
2463;DHT22;1243;54.298;10.172;2022-07-29T16:33:35;22.40;1.00
2463;DHT22;1243;54.298;10.172;2022-07-29T16:39:04;22.20;1.00
2463;DHT22;1243;54.298;10.172;2022-07-29T16:41:30;21.90;1.00
2463;DHT22;1243;54.298;10.172;2022-07-29T16:43:56;21.70;1.00
2463;DHT22;1243;54.298;10.172;2022-07-29T16:46:23;21.60;1.00
2463;DHT22;1243;54.298;10.172;2022-07-29T16:48:49;21.50;1.00
2463;DHT22;1243;54.298;10.172;2022-07-29T16:51:15;21.40;1.00
2463;DHT22;1243;54.298;10.172;2022-07-29T16:53:44;21.30;1.00
2463;DHT22;1243;54.298;10.172;2022-07-29T16:56:10;21.20;1.00
2463;DHT22;1243;54.298;10.172;2022-07-29T16:58:36;21.10;1.00
2463;DHT22;1243;54.298;10.172;2022-07-29T17:01:02;21.00;1.00
2463;DHT22;1243;54.298;10.172;2022-07-29T17:03:28;21.00;1.00
2463;DHT22;1243;54.298;10.172;2022-07-29T17:05:54;21.00;1.00